Time;durP1;ratioP1;P1;durP2;ratioP2;P2;SDS_P1;SDS_P2;PMS_P1;PMS_P2;Temp;Humidity;BMP_temperature;BMP_pressure;BME280_temperature;BME280_humidity;BME280_pressure;Samples;Min_cycle;Max_cycle;Signal;HPM_P1;HPM_P2
2021/06/15 00:00:18;;;;;;;5.88;1.92;;;;;;;12.58;65.83;94942.59;4974822;28;20062;-83
2021/06/15 00:02:44;;;;;;;2.50;2.30;;;;;;;12.55;65.65;94937.84;4922343;28;20074;-83
2021/06/15 00:05:13;;;;;;;2.88;1.92;;;;;;;12.57;65.57;94941.00;4919134;28;20035;-83
2021/06/15 00:07:39;;;;;;;3.47;2.25;;;;;;;12.47;66.22;94935.63;4949649;28;20118;-84
2021/06/15 00:10:07;;;;;;;2.40;2.20;;;;;;;12.41;66.01;94934.00;4915976;28;20046;-83
2021/06/15 00:12:32;;;;;;;2.70;2.03;;;;;;;12.36;66.55;94933.13;4934468;28;20038;-83
2021/06/15 00:14:58;;;;;;;2.25;2.10;;;;;;;12.32;66.08;94928.38;4947250;28;20035;-84
2021/06/15 00:17:23;;;;;;;3.17;2.00;;;;;;;12.30;66.28;94929.66;4964516;28;20506;-83
2021/06/15 00:19:49;;;;;;;1.88;1.77;;;;;;;12.29;66.26;94928.09;4932864;28;20029;-83
2021/06/15 00:22:14;;;;;;;2.28;2.08;;;;;;;12.26;66.42;94923.34;4949643;28;20043;-83
2021/06/15 00:24:43;;;;;;;2.95;2.33;;;;;;;12.25;66.43;94916.56;4916981;28;20379;-83
2021/06/15 00:30:53;;;;;;;5.30;2.08;;;;;;;12.21;65.86;94923.28;5035668;23;20049;-81
2021/06/15 00:33:19;;;;;;;3.22;2.33;;;;;;;12.18;66.08;94927.13;5020067;28;20045;-83
2021/06/15 00:35:44;;;;;;;3.05;2.10;;;;;;;12.23;65.89;94935.06;5015270;28;20072;-82
2021/06/15 00:38:10;;;;;;;3.03;2.78;;;;;;;12.20;66.12;94938.13;5015841;28;20467;-82
2021/06/15 00:40:36;;;;;;;3.97;2.45;;;;;;;12.17;65.72;94929.97;4999313;28;20239;-82
2021/06/15 00:43:22;;;;;;;3.13;2.00;;;;;;;12.07;67.17;94937.66;4999967;28;20034;-82
2021/06/15 00:45:48;;;;;;;5.18;2.88;;;;;;;12.06;66.92;94938.69;5033818;28;20087;-82
2021/06/15 00:48:35;;;;;;;2.47;2.28;;;;;;;12.01;67.35;94942.78;5033682;28;20048;-84
2021/06/15 00:51:01;;;;;;;4.35;2.25;;;;;;;11.99;66.93;94939.63;4985253;28;20025;-81
2021/06/15 00:53:27;;;;;;;6.70;2.25;;;;;;;12.01;67.17;94942.78;4999283;28;20053;-81
2021/06/15 00:55:53;;;;;;;2.17;2.00;;;;;;;12.05;67.35;94950.16;5033241;28;20033;-81
2021/06/15 00:58:18;;;;;;;2.92;2.22;;;;;;;12.06;67.19;94946.53;5016288;28;20037;-80
2021/06/15 01:00:44;;;;;;;3.92;2.30;;;;;;;12.11;67.62;94947.38;5032787;28;20038;-81
2021/06/15 01:03:09;;;;;;;4.32;2.35;;;;;;;12.08;67.12;94941.84;5033680;28;20496;-83
2021/06/15 01:05:38;;;;;;;2.85;2.00;;;;;;;12.04;67.33;94941.53;5035073;28;20516;-81
2021/06/15 01:08:27;;;;;;;3.22;2.28;;;;;;;12.01;67.68;94934.19;5018037;28;20064;-82
2021/06/15 01:11:09;;;;;;;2.00;1.90;;;;;;;12.03;67.25;94945.94;5036773;28;20120;-83
2021/06/15 01:13:57;;;;;;;7.40;2.15;;;;;;;12.00;67.67;94946.41;5018645;28;20040;-81
2021/06/15 01:16:42;;;;;;;4.25;1.98;;;;;;;12.06;67.76;94944.69;5036572;28;20168;-81
2021/06/15 01:19:35;;;;;;;3.55;2.28;;;;;;;12.09;67.07;94948.66;5017579;28;20095;-81
2021/06/15 01:22:20;;;;;;;4.72;2.40;;;;;;;12.10;67.11;94950.22;5036670;28;20496;-83
2021/06/15 01:25:03;;;;;;;10.13;2.65;;;;;;;12.08;67.22;94950.47;5036984;28;20036;-84
2021/06/15 01:27:39;;;;;;;3.70;2.58;;;;;;;12.06;67.51;94934.28;4987463;28;20037;-83
2021/06/15 01:30:06;;;;;;;3.50;2.45;;;;;;;12.05;67.05;94932.69;5018950;28;20160;-83
2021/06/15 01:32:32;;;;;;;12.15;3.97;;;;;;;12.09;66.74;94930.41;5002450;28;20040;-82
2021/06/15 01:35:00;;;;;;;3.78;3.42;;;;;;;12.08;66.70;94932.22;4995951;28;20041;-82
2021/06/15 01:37:32;;;;;;;4.15;3.40;;;;;;;12.10;66.44;94935.38;5001788;28;20030;-82
2021/06/15 01:40:04;;;;;;;6.45;2.97;;;;;;;12.09;66.98;94930.41;5002221;28;20394;-83
2021/06/15 01:42:34;;;;;;;2.67;2.47;;;;;;;12.08;67.23;94927.00;4986689;28;20037;-83
2021/06/15 01:45:04;;;;;;;6.78;2.70;;;;;;;12.11;67.26;94926.53;5034103;28;20590;-83
2021/06/15 01:47:30;;;;;;;2.35;2.25;;;;;;;12.11;66.86;94923.91;5017024;28;20033;-83
2021/06/15 01:49:58;;;;;;;3.38;2.50;;;;;;;12.08;66.67;94926.22;5018282;28;20040;-83
2021/06/15 01:52:28;;;;;;;10.27;2.88;;;;;;;12.15;66.35;94916.41;5047235;23;20064;-82
2021/06/15 01:54:53;;;;;;;2.80;2.58;;;;;;;12.13;66.17;94913.25;5033742;28;20056;-82
2021/06/15 01:57:19;;;;;;;3.70;2.80;;;;;;;12.10;66.08;94918.94;4981947;28;20030;-83
2021/06/15 01:59:45;;;;;;;4.60;2.65;;;;;;;12.06;66.59;94908.22;4981823;28;20064;-82
2021/06/15 02:02:11;;;;;;;2.45;2.25;;;;;;;12.03;67.17;94909.44;4990729;28;20042;-82
2021/06/15 02:04:40;;;;;;;2.67;2.35;;;;;;;12.05;67.06;94911.06;4982072;28;20105;-81
2021/06/15 02:07:06;;;;;;;3.30;2.47;;;;;;;12.05;67.13;94898.81;5030411;23;20053;-81
2021/06/15 02:09:36;;;;;;;4.60;2.50;;;;;;;12.00;66.55;94893.50;4982105;28;20033;-82
2021/06/15 02:12:02;;;;;;;5.88;2.67;;;;;;;12.06;66.76;94897.78;5006586;28;20042;-80
2021/06/15 02:14:30;;;;;;;3.88;2.25;;;;;;;12.03;66.63;94901.63;5016135;28;20032;-83
2021/06/15 02:16:57;;;;;;;2.95;2.47;;;;;;;11.98;67.11;94900.78;5024989;28;20556;-83
2021/06/15 02:19:33;;;;;;;5.45;2.65;;;;;;;12.04;67.05;94907.66;5013992;28;20481;-82
2021/06/15 02:22:06;;;;;;;4.85;2.63;;;;;;;12.07;66.68;94899.34;5016630;28;20045;-83
2021/06/15 02:24:50;;;;;;;3.22;2.90;;;;;;;12.07;67.06;94903.78;5015312;28;20033;-83
2021/06/15 02:27:17;;;;;;;4.00;2.90;;;;;;;12.09;67.11;94909.53;4996352;28;20049;-82
2021/06/15 02:29:42;;;;;;;4.32;2.47;;;;;;;12.14;66.66;94904.41;5037209;28;20026;-82
2021/06/15 02:32:09;;;;;;;6.88;2.40;;;;;;;12.14;66.94;94904.41;5136740;23;20049;-82
2021/06/15 02:34:36;;;;;;;3.17;2.38;;;;;;;12.11;66.58;94900.47;4995566;28;20052;-82
2021/06/15 02:37:07;;;;;;;3.22;2.40;;;;;;;12.12;66.54;94911.66;4982828;28;20035;-80
2021/06/15 02:39:33;;;;;;;3.92;2.90;;;;;;;12.09;66.90;94912.16;4982370;28;20105;-82
2021/06/15 02:41:59;;;;;;;8.85;2.47;;;;;;;12.14;66.73;94909.63;5051296;23;20026;-82
2021/06/15 02:44:28;;;;;;;7.22;2.83;;;;;;;12.20;65.95;94911.25;5043007;28;20048;-82
2021/06/15 02:46:57;;;;;;;2.90;2.65;;;;;;;12.16;66.63;94917.97;5020077;28;20133;-82
2021/06/15 02:49:29;;;;;;;3.47;2.80;;;;;;;12.13;66.31;94908.03;5009532;28;20041;-81
2021/06/15 02:52:43;;;;;;;4.25;3.90;;;;;;;12.12;67.08;94919.50;5025262;28;20473;-82
2021/06/15 02:55:29;;;;;;;6.63;2.72;;;;;;;12.03;66.86;94912.06;4997229;28;20050;-82
2021/06/15 02:57:57;;;;;;;3.00;2.80;;;;;;;11.97;66.70;94915.63;5025557;28;20033;-81
2021/06/15 03:00:23;;;;;;;5.38;3.33;;;;;;;11.90;67.44;94920.22;5023827;28;20079;-82
2021/06/15 03:02:48;;;;;;;5.30;3.30;;;;;;;11.90;66.91;94917.63;5009454;28;20026;-82
2021/06/15 03:05:14;;;;;;;6.80;3.88;;;;;;;11.87;67.49;94922.47;5024437;28;20081;-82
2021/06/15 03:07:40;;;;;;;5.63;3.25;;;;;;;11.78;68.01;94914.25;5023214;28;20487;-82
2021/06/15 03:10:07;;;;;;;3.20;3.00;;;;;;;11.75;67.59;94917.34;5006506;28;20021;-82
2021/06/15 03:12:35;;;;;;;4.68;2.92;;;;;;;11.78;67.79;94924.69;4998801;28;20406;-82
2021/06/15 03:15:06;;;;;;;8.88;2.53;;;;;;;11.79;67.66;94944.53;5008125;28;20076;-82
2021/06/15 03:17:39;;;;;;;5.65;2.90;;;;;;;11.86;68.12;94945.16;5005307;28;20042;-81
2021/06/15 03:20:07;;;;;;;5.38;2.47;;;;;;;11.97;66.98;94951.31;5007867;28;20089;-82
2021/06/15 03:22:41;;;;;;;3.25;2.78;;;;;;;12.11;66.78;94962.22;5008638;28;20049;-83
2021/06/15 03:25:07;;;;;;;3.53;2.53;;;;;;;12.14;67.29;94962.53;5009099;28;20427;-82
2021/06/15 03:27:54;;;;;;;3.67;2.90;;;;;;;12.25;66.42;94969.50;4988235;28;20038;-83
2021/06/15 03:30:20;;;;;;;3.58;2.60;;;;;;;12.45;66.32;94981.25;5006981;28;20029;-82
2021/06/15 03:32:48;;;;;;;8.00;2.88;;;;;;;12.58;66.28;94976.50;5008499;28;20116;-84
2021/06/15 03:35:16;;;;;;;2.47;2.38;;;;;;;12.73;65.28;94983.75;4993625;28;20027;-82
2021/06/15 03:37:51;;;;;;;2.83;2.63;;;;;;;12.89;64.86;94984.75;5034568;23;20046;-83
2021/06/15 03:40:18;;;;;;;6.10;3.55;;;;;;;12.99;64.74;94984.84;5020805;28;20128;-82
2021/06/15 03:42:44;;;;;;;4.50;3.15;;;;;;;13.14;63.91;94973.81;5036994;28;20067;-82
2021/06/15 03:45:10;;;;;;;7.05;2.75;;;;;;;13.30;63.73;94969.56;5029047;28;20025;-82
2021/06/15 03:47:37;;;;;;;6.03;2.40;;;;;;;13.34;63.49;94968.03;5010422;28;20028;-82
2021/06/15 03:50:03;;;;;;;3.88;2.63;;;;;;;13.46;62.97;94974.72;5027646;28;20029;-82
2021/06/15 03:52:39;;;;;;;4.40;2.67;;;;;;;13.67;62.26;94969.72;5043904;28;20052;-82
2021/06/15 03:55:06;;;;;;;3.42;2.53;;;;;;;13.81;61.41;94963.81;5041556;28;20524;-82
2021/06/15 03:57:31;;;;;;;4.53;4.15;;;;;;;13.96;61.10;94973.63;5042637;28;20127;-83
2021/06/15 03:59:59;;;;;;;8.95;4.53;;;;;;;14.14;60.74;94969.84;5042998;28;20488;-82
2021/06/15 04:02:25;;;;;;;4.80;2.60;;;;;;;14.61;59.45;94969.16;5026532;28;20029;-82
2021/06/15 04:04:51;;;;;;;3.70;2.60;;;;;;;16.03;55.71;94968.91;5025633;28;20041;-82
2021/06/15 04:07:23;;;;;;;2.88;2.40;;;;;;;17.25;51.74;94990.53;5060260;28;20041;-87
2021/06/15 04:09:52;;;;;;;2.50;2.25;;;;;;;18.45;48.46;94999.06;5034066;28;20095;-86
2021/06/15 04:12:20;;;;;;;6.75;2.00;;;;;;;18.85;46.45;94990.00;5059407;28;20033;-86
2021/06/15 04:14:47;;;;;;;3.00;2.45;;;;;;;19.58;45.54;94997.66;5061404;28;20055;-87
2021/06/15 04:17:22;;;;;;;3.22;2.00;;;;;;;21.04;41.16;94995.69;5048929;28;20072;-86
2021/06/15 04:19:49;;;;;;;6.85;2.60;;;;;;;22.02;39.39;94977.56;5062678;28;20037;-87
2021/06/15 04:22:18;;;;;;;6.13;2.50;;;;;;;22.63;37.86;94989.41;5050392;28;20416;-86
2021/06/15 04:24:47;;;;;;;3.40;2.35;;;;;;;22.77;37.33;94992.72;5045499;28;20026;-87
2021/06/15 04:27:25;;;;;;;3.42;2.13;;;;;;;23.13;37.03;94985.75;5034432;28;20463;-86
2021/06/15 04:29:54;;;;;;;2.80;2.25;;;;;;;23.55;36.20;94984.31;5033780;28;20055;-87
2021/06/15 04:32:20;;;;;;;3.42;2.17;;;;;;;23.95;35.21;94983.16;5050691;28;20113;-87
2021/06/15 04:34:56;;;;;;;3.35;2.20;;;;;;;24.21;34.09;94985.03;5018127;28;20046;-86
2021/06/15 04:37:22;;;;;;;2.60;2.42;;;;;;;24.55;33.55;94985.03;5016673;28;20100;-87
2021/06/15 04:39:53;;;;;;;4.78;2.42;;;;;;;25.22;32.78;94990.78;5054496;28;20037;-87
2021/06/15 04:42:57;;;;;;;4.50;1.90;;;;;;;25.43;31.87;94983.66;5026178;28;20056;-87
2021/06/15 04:45:28;;;;;;;5.43;2.08;;;;;;;25.12;32.30;94984.75;5056899;28;20045;-88
2021/06/15 04:48:05;;;;;;;13.30;2.05;;;;;;;24.76;32.67;94979.84;5016356;28;20042;-87
2021/06/15 04:50:31;;;;;;;4.47;2.88;;;;;;;24.55;32.79;94992.22;5034642;23;20058;-87
2021/06/15 04:53:05;;;;;;;5.63;2.45;;;;;;;24.01;34.48;94998.94;4979277;28;20034;-88
2021/06/15 04:55:36;;;;;;;4.85;2.60;;;;;;;23.69;34.76;94987.66;5104128;22;20039;-87
2021/06/15 04:58:03;;;;;;;4.38;2.67;;;;;;;23.80;35.25;94991.59;5005820;28;20072;-87
2021/06/15 05:00:28;;;;;;;2.25;2.05;;;;;;;24.36;33.92;94992.56;5037893;28;20029;-87
2021/06/15 05:02:54;;;;;;;7.20;2.92;;;;;;;24.70;33.47;94996.25;5020913;28;20044;-87
2021/06/15 05:08:14;;;;;;;2.75;1.90;;;;;;;24.84;32.88;95002.16;5026964;28;20084;-86
2021/06/15 05:10:39;;;;;;;8.30;2.65;;;;;;;24.46;33.85;94997.56;4987916;28;20042;-86
2021/06/15 05:13:08;;;;;;;5.38;2.08;;;;;;;24.67;33.85;95002.22;4987982;28;20133;-86
2021/06/15 05:15:34;;;;;;;9.70;2.17;;;;;;;24.92;33.13;95004.03;4979015;28;20068;-85
2021/06/15 05:17:59;;;;;;;2.53;2.30;;;;;;;24.94;32.83;95012.47;4987976;28;20030;-86
2021/06/15 05:20:25;;;;;;;2.97;2.08;;;;;;;24.34;33.71;95009.91;4989596;28;20139;-88
2021/06/15 05:23:02;;;;;;;3.42;2.58;;;;;;;23.45;34.98;95017.25;5002929;28;20033;-87
2021/06/15 05:25:28;;;;;;;5.22;2.53;;;;;;;22.66;36.60;95015.28;5020129;28;20099;-87
2021/06/15 05:27:54;;;;;;;4.22;3.45;;;;;;;22.26;37.63;95018.88;4986613;28;20042;-87
2021/06/15 05:30:20;;;;;;;6.00;2.55;;;;;;;21.70;39.31;95020.09;4980661;28;20048;-87
2021/06/15 05:32:45;;;;;;;5.20;2.65;;;;;;;21.14;40.53;95021.91;4985660;28;20041;-87
2021/06/15 05:35:13;;;;;;;5.28;2.90;;;;;;;20.50;41.64;95030.69;4988652;28;20037;-87
2021/06/15 05:37:40;;;;;;;8.63;5.03;;;;;;;19.87;43.19;95037.13;4981694;28;20045;-88
2021/06/15 05:40:06;;;;;;;5.13;3.50;;;;;;;19.68;44.15;95041.56;4980437;28;20050;-87
2021/06/15 05:42:32;;;;;;;3.97;3.08;;;;;;;19.56;44.43;95041.22;4990752;23;20052;-88
2021/06/15 05:44:57;;;;;;;9.85;3.90;;;;;;;19.21;45.56;95037.09;5046434;28;20025;-87
2021/06/15 05:47:23;;;;;;;7.85;3.45;;;;;;;18.77;46.52;95040.69;5019101;28;20033;-87
2021/06/15 05:49:51;;;;;;;3.78;3.45;;;;;;;18.78;46.68;95034.34;5009851;28;20034;-87
2021/06/15 05:52:17;;;;;;;15.57;3.95;;;;;;;18.60;47.29;95031.31;5026942;28;20065;-87
2021/06/15 05:54:43;;;;;;;8.70;3.60;;;;;;;18.63;47.64;95035.28;5035085;28;20045;-86
2021/06/15 05:57:08;;;;;;;14.27;5.25;;;;;;;18.93;47.28;95038.69;5025417;28;20026;-88
2021/06/15 05:59:34;;;;;;;13.20;5.13;;;;;;;19.08;46.17;95035.91;5033185;28;20125;-87
2021/06/15 06:01:59;;;;;;;10.23;5.30;;;;;;;19.06;45.60;95028.28;5034917;28;20112;-87
2021/06/15 06:04:28;;;;;;;25.65;14.63;;;;;;;19.10;45.89;95034.56;5034978;28;20029;-88
2021/06/15 06:09:38;;;;;;;8.35;5.70;;;;;;;21.72;40.51;95036.47;5035004;28;20092;-86
2021/06/15 06:12:04;;;;;;;7.10;3.55;;;;;;;22.70;38.71;95029.50;5048113;28;20029;-86
2021/06/15 06:14:30;;;;;;;5.35;3.63;;;;;;;22.57;38.17;95021.59;5020457;28;20052;-87
2021/06/15 06:16:55;;;;;;;3.72;3.03;;;;;;;22.97;37.21;95020.66;5016519;28;20041;-87
2021/06/15 06:19:21;;;;;;;5.38;2.72;;;;;;;24.84;34.16;95023.44;5018553;28;20091;-87
2021/06/15 06:21:49;;;;;;;8.40;3.47;;;;;;;27.09;30.23;95019.41;5000319;28;20092;-87
2021/06/15 06:24:17;;;;;;;9.13;3.22;;;;;;;28.30;28.68;95009.78;5035547;28;20034;-87
2021/06/15 06:26:43;;;;;;;9.02;3.00;;;;;;;29.62;26.99;95024.75;5019790;28;20045;-87
2021/06/15 06:29:08;;;;;;;14.27;3.60;;;;;;;30.46;25.22;95014.31;5037193;28;20040;-87
2021/06/15 06:31:34;;;;;;;15.30;3.90;;;;;;;31.16;24.15;95012.53;5017347;28;20052;-87
2021/06/15 06:33:59;;;;;;;19.02;5.93;;;;;;;32.60;22.20;95017.75;5017365;28;20412;-87
2021/06/15 06:36:25;;;;;;;10.25;3.10;;;;;;;32.87;21.20;95010.38;5035304;28;20041;-87
2021/06/15 06:38:54;;;;;;;18.02;3.72;;;;;;;34.14;20.09;95014.47;5028835;28;20148;-86
2021/06/15 06:41:19;;;;;;;9.43;2.65;;;;;;;34.73;19.17;95023.25;5023984;28;20037;-87
2021/06/15 06:43:45;;;;;;;4.43;2.28;;;;;;;34.41;19.27;95012.34;5036448;28;20026;-87
2021/06/15 06:46:11;;;;;;;7.43;2.25;;;;;;;34.55;19.09;95017.78;5041219;28;20033;-87
2021/06/15 06:48:36;;;;;;;19.80;4.63;;;;;;;34.36;19.60;95021.59;5038292;28;20041;-87
2021/06/15 06:51:03;;;;;;;39.10;8.43;;;;;;;34.86;19.20;95019.09;5071179;22;20401;-87
2021/06/15 06:53:29;;;;;;;13.60;2.70;;;;;;;36.12;17.65;95007.13;5056205;28;20097;-87
2021/06/15 06:55:55;;;;;;;4.22;2.20;;;;;;;35.07;18.92;95010.22;5055246;28;20067;-87
2021/06/15 06:58:21;;;;;;;3.38;2.30;;;;;;;35.15;19.41;95007.16;5056598;28;20025;-86
2021/06/15 07:00:47;;;;;;;3.70;2.08;;;;;;;34.70;19.55;95002.41;5038718;28;20033;-87
2021/06/15 07:03:12;;;;;;;3.05;1.40;;;;;;;34.02;19.90;95002.09;5005231;28;20024;-87
2021/06/15 07:05:38;;;;;;;6.72;2.45;;;;;;;33.32;20.86;95001.16;5004727;28;20053;-87
2021/06/15 07:08:03;;;;;;;3.22;2.35;;;;;;;32.70;21.41;95003.63;5021407;28;20484;-87
2021/06/15 07:10:29;;;;;;;7.70;2.30;;;;;;;33.05;21.71;94992.47;5020090;28;20037;-86
2021/06/15 07:12:55;;;;;;;2.15;1.90;;;;;;;32.52;21.02;94986.50;5038044;28;20028;-86
2021/06/15 07:15:21;;;;;;;6.38;2.00;;;;;;;31.58;22.20;94988.31;5023384;28;20546;-87
2021/06/15 07:17:46;;;;;;;2.50;2.08;;;;;;;30.91;23.36;94996.75;5024793;28;20032;-87
2021/06/15 07:20:12;;;;;;;8.52;1.98;;;;;;;30.33;24.01;94988.75;5039696;28;20029;-87
2021/06/15 07:22:38;;;;;;;9.90;3.35;;;;;;;30.07;24.66;94992.03;5024409;28;20066;-87
2021/06/15 07:25:05;;;;;;;10.48;3.90;;;;;;;29.36;25.83;94984.28;5023807;28;20029;-87
2021/06/15 07:27:30;;;;;;;2.72;2.35;;;;;;;29.09;26.42;94985.91;5052948;22;20037;-86
2021/06/15 07:29:56;;;;;;;4.32;2.53;;;;;;;28.77;26.72;94985.06;5048908;28;20052;-87
2021/06/15 07:32:21;;;;;;;12.57;3.00;;;;;;;28.57;27.31;94982.28;5019048;28;20029;-86
2021/06/15 07:34:47;;;;;;;10.15;3.10;;;;;;;28.60;27.12;94981.59;5040205;28;20090;-86
2021/06/15 07:37:13;;;;;;;10.23;1.80;;;;;;;28.20;27.06;94980.84;5000840;28;20072;-86
2021/06/15 07:39:39;;;;;;;5.95;2.05;;;;;;;27.80;27.78;94973.56;5031793;28;20086;-86
2021/06/15 07:42:04;;;;;;;5.85;2.28;;;;;;;26.99;28.75;94961.06;5031431;28;20642;-87
2021/06/15 07:44:30;;;;;;;3.92;2.38;;;;;;;26.61;29.44;94964.78;5003511;28;20063;-86
2021/06/15 07:46:56;;;;;;;4.20;2.25;;;;;;;26.55;29.37;94960.78;5037296;23;20040;-86
2021/06/15 07:49:22;;;;;;;4.93;1.90;;;;;;;26.04;30.65;94960.13;5032332;28;20036;-86
2021/06/15 07:51:48;;;;;;;9.30;2.30;;;;;;;26.08;29.79;94946.91;5038718;28;20041;-87
2021/06/15 07:54:13;;;;;;;2.78;1.88;;;;;;;26.14;30.32;94957.03;5038688;28;20033;-86
2021/06/15 07:56:41;;;;;;;7.15;2.35;;;;;;;26.13;29.94;94954.69;5062105;22;20041;-87
2021/06/15 07:59:07;;;;;;;10.38;2.30;;;;;;;26.00;30.69;94956.53;5049292;28;20045;-86
2021/06/15 08:01:44;;;;;;;5.72;2.00;;;;;;;25.59;30.92;94951.94;5034426;28;20030;-86
2021/06/15 08:04:14;;;;;;;6.53;2.72;;;;;;;25.29;31.84;94964.47;5017885;28;20044;-87
2021/06/15 08:06:39;;;;;;;15.15;2.40;;;;;;;25.13;32.61;94957.03;5000578;28;20037;-87
2021/06/15 08:09:04;;;;;;;9.20;2.50;;;;;;;25.16;33.58;94955.59;5014117;28;20030;-87
2021/06/15 08:11:30;;;;;;;5.10;2.42;;;;;;;25.31;33.19;94951.63;5010214;28;20034;-86
2021/06/15 08:13:56;;;;;;;2.88;2.08;;;;;;;25.48;32.66;94946.19;5043632;28;20063;-86
2021/06/15 08:16:21;;;;;;;15.75;2.45;;;;;;;25.34;32.63;94953.63;5018923;28;20060;-86
2021/06/15 08:18:47;;;;;;;5.40;2.38;;;;;;;25.28;31.05;94945.06;5018651;28;20444;-87
2021/06/15 08:21:13;;;;;;;8.32;1.65;;;;;;;24.88;32.01;94949.88;5020119;28;20041;-86
2021/06/15 08:23:42;;;;;;;2.80;1.92;;;;;;;24.85;32.59;94934.56;5007211;28;20033;-86
2021/06/15 08:26:07;;;;;;;3.22;2.15;;;;;;;24.74;33.18;94938.69;5061159;28;20036;-86
2021/06/15 08:28:33;;;;;;;10.90;2.55;;;;;;;24.40;33.15;94935.00;5058249;28;20084;-87
2021/06/15 08:30:58;;;;;;;5.22;2.22;;;;;;;24.31;34.80;94931.59;5051848;28;20024;-86
2021/06/15 08:33:24;;;;;;;7.72;2.08;;;;;;;24.34;33.92;94932.84;5059538;28;20028;-86
2021/06/15 08:35:50;;;;;;;3.35;2.00;;;;;;;24.63;34.60;94937.47;5066402;28;20053;-87
2021/06/15 08:38:18;;;;;;;9.13;2.90;;;;;;;24.74;33.58;94920.09;5066815;28;20025;-86
2021/06/15 08:40:50;;;;;;;5.93;2.10;;;;;;;25.16;31.78;94928.22;5048172;28;20037;-86
2021/06/15 08:43:17;;;;;;;16.48;1.92;;;;;;;25.23;32.46;94933.84;5050547;28;20037;-86
2021/06/15 08:45:43;;;;;;;13.32;2.60;;;;;;;25.29;32.08;94935.97;5028021;28;20039;-86
2021/06/15 08:48:08;;;;;;;7.35;2.60;;;;;;;25.64;31.17;94928.56;5027538;28;20024;-87
2021/06/15 08:50:34;;;;;;;4.18;2.00;;;;;;;25.71;31.71;94933.41;5041562;28;20025;-87
2021/06/15 08:53:00;;;;;;;2.42;2.15;;;;;;;25.64;31.35;94933.88;5035384;28;20037;-86
2021/06/15 08:55:30;;;;;;;5.13;1.60;;;;;;;25.46;29.13;94916.47;5014797;28;20413;-87
2021/06/15 08:58:05;;;;;;;10.90;1.60;;;;;;;25.35;30.53;94925.91;5041423;28;20060;-88
2021/06/15 09:00:31;;;;;;;4.97;1.95;;;;;;;25.11;32.00;94929.97;5019375;28;20044;-87
2021/06/15 09:02:56;;;;;;;11.98;1.85;;;;;;;25.07;31.26;94921.06;5077546;22;20041;-86
2021/06/15 09:05:25;;;;;;;4.43;1.65;;;;;;;24.93;32.39;94925.78;5050484;28;20037;-85
2021/06/15 09:08:01;;;;;;;3.67;1.40;;;;;;;24.73;31.68;94918.50;5053587;28;20041;-86
2021/06/15 09:11:04;;;;;;;6.50;1.45;;;;;;;24.69;32.00;94921.00;5050802;28;20100;-88
2021/06/15 09:13:34;;;;;;;5.85;1.80;;;;;;;24.83;32.52;94916.28;5052435;28;20036;-88
2021/06/15 09:15:59;;;;;;;13.52;1.85;;;;;;;24.89;31.14;94908.88;5068409;28;20041;-88
2021/06/15 09:18:29;;;;;;;5.43;1.60;;;;;;;24.88;31.14;94906.56;5034082;28;20519;-87
2021/06/15 09:21:05;;;;;;;9.50;2.58;;;;;;;24.76;32.09;94908.03;5017974;28;20025;-88
2021/06/15 09:23:35;;;;;;;9.13;3.28;;;;;;;24.98;31.43;94906.19;5034964;28;20671;-87
2021/06/15 09:26:01;;;;;;;9.32;3.13;;;;;;;25.03;32.07;94898.06;5047722;28;20056;-87
2021/06/15 09:28:35;;;;;;;10.85;2.13;;;;;;;24.91;31.67;94912.03;5017068;28;20045;-87
2021/06/15 09:31:01;;;;;;;7.40;2.97;;;;;;;24.99;31.96;94897.91;5053334;28;20096;-87
2021/06/15 09:33:41;;;;;;;6.50;1.80;;;;;;;24.90;31.34;94899.84;5052209;28;20416;-87
2021/06/15 09:36:24;;;;;;;11.73;1.65;;;;;;;24.76;32.24;94893.94;5050753;28;20108;-87
2021/06/15 09:38:54;;;;;;;;;;;;;;;24.99;31.79;94897.91;5055821;28;20029;-87
2021/06/15 09:41:40;;;;;;;3.78;1.80;;;;;;;25.09;31.66;94886.16;5054910;28;19917;-87
2021/06/15 09:44:20;;;;;;;3.50;2.58;;;;;;;25.16;31.89;94890.97;5065749;28;20036;-87
2021/06/15 09:46:50;;;;;;;5.07;1.85;;;;;;;24.99;30.84;94887.25;5075282;28;20491;-88
2021/06/15 09:49:33;;;;;;;7.45;1.92;;;;;;;24.53;31.43;94874.78;5052955;28;20037;-87
2021/06/15 09:52:24;;;;;;;6.47;1.98;;;;;;;24.35;32.00;94883.91;5036086;28;20516;-87
2021/06/15 09:54:57;;;;;;;13.80;3.30;;;;;;;23.98;33.22;94874.72;5063520;28;20028;-87
2021/06/15 09:57:37;;;;;;;3.35;1.95;;;;;;;23.73;33.06;94876.28;5100369;22;20025;-85
2021/06/15 10:00:28;;;;;;;3.20;1.60;;;;;;;23.44;33.27;94877.69;5033016;28;20079;-86
2021/06/15 10:02:54;;;;;;;2.65;1.88;;;;;;;23.31;34.23;94879.38;5012793;28;20051;-86
2021/06/15 10:05:38;;;;;;;5.93;1.40;;;;;;;23.09;34.28;94876.81;5057127;22;20037;-86
2021/06/15 10:08:07;;;;;;;3.72;1.50;;;;;;;22.79;35.15;94875.00;5040039;28;20091;-85
2021/06/15 10:10:38;;;;;;;3.42;1.30;;;;;;;22.69;34.45;94873.41;5045954;28;20301;-86
2021/06/15 10:13:04;;;;;;;4.93;1.20;;;;;;;22.72;33.82;94889.47;5042763;28;20134;-86
2021/06/15 10:15:30;;;;;;;4.05;1.73;;;;;;;22.79;35.01;94881.09;5029452;28;20086;-86
2021/06/15 10:17:56;;;;;;;3.47;1.40;;;;;;;22.93;33.92;94884.41;5011115;28;20046;-86
2021/06/15 10:20:24;;;;;;;8.23;1.60;;;;;;;23.02;34.22;94885.25;5044878;28;20032;-86
2021/06/15 10:22:50;;;;;;;7.35;1.90;;;;;;;23.26;35.04;94890.13;5027306;28;20043;-86
2021/06/15 10:25:17;;;;;;;2.97;1.50;;;;;;;23.54;33.79;94876.56;5023800;28;20117;-86
2021/06/15 10:27:42;;;;;;;8.43;1.73;;;;;;;23.67;33.21;94873.03;5045834;28;20033;-86
2021/06/15 10:30:09;;;;;;;5.30;1.73;;;;;;;23.65;33.31;94876.00;5043329;28;20029;-87
2021/06/15 10:32:35;;;;;;;7.85;1.35;;;;;;;23.74;32.97;94870.66;5026454;28;20563;-86
2021/06/15 10:35:04;;;;;;;5.78;1.38;;;;;;;23.66;32.93;94858.19;5025067;28;20052;-87
2021/06/15 10:37:35;;;;;;;4.72;1.30;;;;;;;23.55;32.47;94864.88;5046154;28;20033;-86
2021/06/15 10:40:06;;;;;;;1.83;1.17;;;;;;;23.33;32.73;94858.63;5046644;28;20057;-87
2021/06/15 10:42:36;;;;;;;3.03;1.10;;;;;;;23.32;32.43;94857.06;5045599;28;20044;-87
2021/06/15 10:45:19;;;;;;;12.13;1.55;;;;;;;23.64;33.67;94850.53;5038961;28;20005;-87
2021/06/15 10:48:03;;;;;;;1.55;1.40;;;;;;;23.53;32.91;94853.78;5053094;28;20512;-87
2021/06/15 10:50:49;;;;;;;4.20;1.30;;;;;;;23.38;33.27;94843.63;5048827;28;20084;-87
2021/06/15 10:58:48;;;;;;;2.88;1.63;;;;;;;22.99;34.75;94840.78;5052259;28;20053;-85
2021/06/15 11:01:24;;;;;;;5.75;1.52;;;;;;;23.12;35.46;94839.09;5053477;28;20028;-86
2021/06/15 11:03:56;;;;;;;3.63;1.67;;;;;;;23.13;34.72;94837.22;5055009;28;20059;-86
2021/06/15 11:06:27;;;;;;;;;;;;;;;23.05;34.53;94838.75;5121202;22;20048;-88
2021/06/15 11:09:17;;;;;;;8.73;1.50;;;;;;;22.90;34.15;94831.22;5079478;28;19927;-87
2021/06/15 11:11:50;;;;;;;1.95;1.30;;;;;;;22.67;34.52;94836.59;5068833;28;20384;-87
2021/06/15 11:14:20;;;;;;;4.63;1.45;;;;;;;22.69;34.75;94831.78;5060151;28;20047;-87
2021/06/15 11:16:49;;;;;;;5.18;1.20;;;;;;;22.71;35.48;94831.47;5034121;28;20041;-88
2021/06/15 11:19:17;;;;;;;5.60;1.80;;;;;;;23.02;35.97;94828.75;5039717;28;20059;-87
2021/06/15 11:21:59;;;;;;;2.03;1.58;;;;;;;23.24;35.33;94822.53;5059275;28;20220;-88
2021/06/15 11:24:35;;;;;;;10.95;1.38;;;;;;;23.01;35.27;94825.34;5058528;28;20389;-87
2021/06/15 11:27:16;;;;;;;4.45;1.40;;;;;;;22.83;34.17;94830.91;5042350;28;20562;-87
2021/06/15 11:29:43;;;;;;;6.80;1.63;;;;;;;22.66;35.27;94821.78;5042960;28;20040;-87
2021/06/15 11:32:17;;;;;;;5.57;2.05;;;;;;;22.52;36.09;94822.97;5024646;28;20144;-88
2021/06/15 11:35:04;;;;;;;3.63;2.17;;;;;;;22.34;37.28;94828.22;5059792;28;20084;-88
2021/06/15 11:37:32;;;;;;;3.45;1.50;;;;;;;22.12;37.22;94829.03;5059509;28;20037;-88
2021/06/15 11:40:18;;;;;;;4.32;1.70;;;;;;;22.13;36.67;94822.66;5057827;28;20490;-86
2021/06/15 11:42:45;;;;;;;7.50;1.45;;;;;;;22.25;36.53;94816.00;5058499;28;20468;-87
2021/06/15 11:45:34;;;;;;;3.90;1.58;;;;;;;22.54;36.63;94818.16;5030330;28;20052;-87
2021/06/15 11:48:35;;;;;;;7.80;1.52;;;;;;;22.74;35.39;94806.97;5060914;28;20087;-87
2021/06/15 11:51:08;;;;;;;10.00;1.60;;;;;;;22.60;34.78;94801.00;5015274;28;20049;-87
2021/06/15 11:53:38;;;;;;;6.15;1.30;;;;;;;22.50;35.50;94804.75;5034857;28;20041;-87
2021/06/15 11:56:07;;;;;;;4.88;1.38;;;;;;;22.40;35.57;94797.06;5061190;28;20033;-87
2021/06/15 11:58:54;;;;;;;2.08;1.67;;;;;;;22.22;36.92;94803.38;5026625;28;20119;-86